Date,TemperatureHighF,TemperatureAvgF,TemperatureLowF,DewpointHighF,DewpointAvgF,DewpointLowF,HumidityHigh,HumidityAvg,HumidityLow,PressureMaxIn,PressureMinIn,WindSpeedMaxMPH,WindSpeedAvgMPH,GustSpeedMaxMPH,PrecipitationSumIn
2013-3-1,58,48,44,48,45,42,94,89,69,29.82,29.66,25,6,43,0.49
2013-3-2,61,53,47,47,44,39,89,72,49,30.12,29.81,25,11,41,0.00
2013-3-3,65,53,46,49,43,36,87,70,48,30.11,29.98,7,2,10,0.00
2013-3-4,63,56,51,54,50,46,90,83,69,29.99,29.72,7,2,11,0.02
2013-3-5,68,59,55,56,53,51,91,82,59,29.72,29.32,5,2,12,0.09
2013-3-6,67,58,54,54,52,48,92,82,52,29.57,29.25,23,12,30,0.09
2013-3-7,72,62,55,55,52,49,91,72,48,29.73,29.56,20,10,25,0.00
2013-3-8,69,63,55,55,48,43,91,61,41,29.78,29.57,21,12,32,0.01
2013-3-9,71,60,53,54,49,39,92,69,32,29.76,29.67,22,8,31,0.00
2013-3-10,63,57,52,52,47,40,92,70,45,29.71,29.59,20,10,30,0.00
2013-3-11,63,58,52,46,42,39,73,58,43,29.70,29.61,16,10,26,0.00
2013-3-12,64,56,50,44,41,34,74,57,38,29.64,29.53,16,8,27,0.01
2013-3-13,58,48,40,49,43,36,92,83,62,29.62,29.34,18,5,24,1.40
2013-3-14,53,47,41,40,37,31,92,69,48,29.83,29.62,18,7,29,0.14
2013-3-15,57,50,44,39,36,31,76,59,38,30.10,29.83,12,4,16,0.00
2013-3-16,57,48,41,44,37,24,79,65,48,30.10,29.87,11,5,15,0.00
2013-3-17,63,54,47,51,45,36,85,71,56,29.87,29.48,18,7,23,0.00
2013-3-18,62,57,49,53,42,30,92,61,33,29.79,29.43,15,8,21,0.09
2013-3-19,67,58,49,52,49,38,90,73,55,29.79,29.58,11,4,13,0.00
2013-3-20,59,53,48,52,48,43,91,82,64,30.11,29.55,13,5,22,0.02
2013-3-21,64,54,45,52,48,41,91,79,60,30.13,29.97,16,9,21,0.00
2013-3-22,69,56,45,52,47,42,92,75,38,29.97,29.72,15,6,20,0.01
2013-3-23,65,57,52,54,50,48,91,79,56,29.74,29.59,16,6,22,0.01
2013-3-24,68,58,51,53,48,42,89,72,43,29.63,29.49,8,2,10,0.00
2013-3-25,66,59,51,49,44,39,84,59,38,29.77,29.61,16,10,23,0.00
2013-3-26,73,63,56,54,50,45,91,63,41,29.68,29.53,21,8,35,0.15
2013-3-27,68,60,55,56,52,49,92,78,52,29.70,29.55,12,5,16,0.01
2013-3-28,71,61,55,58,54,50,92,78,58,29.85,29.63,14,8,17,0.00
2013-3-29,71,61,53,55,52,49,91,74,48,29.84,29.67,17,9,23,0.00
2013-3-30,68,65,57,54,44,37,89,47,33,29.79,29.60,24,15,40,0.01
2013-3-31,73,63,57,52,42,36,84,48,31,29.79,29.64,18,8,22,0.00